Time,TemperatureF,DewpointF,PressureIn,WindDirection,WindDirectionDegrees,WindSpeedMPH,WindSpeedGustMPH,Humidity,HourlyPrecipIn,Conditions,Clouds,dailyrainin,SoftwareType,DateUTC
2013-08-21 00:11:00,67.6,65.0,30.15,SSE,162,0.0,-999.0,91,-99.99,,,0.00,weatherlink.com 1.10,2013-08-21 04:11:00,
2013-08-21 00:26:00,67.1,65.0,30.15,SSE,162,0.0,-999.0,92,-99.99,,,0.00,weatherlink.com 1.10,2013-08-21 04:26:00,
2013-08-21 00:41:00,67.1,65.0,30.14,SSE,162,0.0,-999.0,93,-99.99,,,0.00,weatherlink.com 1.10,2013-08-21 04:41:00,
2013-08-21 00:56:00,66.7,65.0,30.15,SSE,162,0.0,-999.0,93,-99.99,,,0.00,weatherlink.com 1.10,2013-08-21 04:56:00,
2013-08-21 01:11:00,66.3,64.0,30.15,SSE,162,0.0,-999.0,93,-99.99,,,0.00,weatherlink.com 1.10,2013-08-21 05:11:00,
2013-08-21 01:26:00,66.1,64.0,30.14,SSE,161,0.0,-999.0,94,-99.99,,,0.00,weatherlink.com 1.10,2013-08-21 05:26:00,
2013-08-21 01:41:00,66.1,64.0,30.14,SE,136,0.0,-999.0,94,-99.99,,,0.00,weatherlink.com 1.10,2013-08-21 05:41:00,
2013-08-21 01:56:00,66.2,65.0,30.14,SE,130,0.0,-999.0,94,-99.99,,,0.00,weatherlink.com 1.10,2013-08-21 05:56:00,
2013-08-21 02:11:00,66.2,65.0,30.14,SE,130,0.0,-999.0,94,-99.99,,,0.00,weatherlink.com 1.10,2013-08-21 06:11:00,
2013-08-21 02:26:00,65.9,64.0,30.14,SE,130,0.0,-999.0,94,-99.99,,,0.00,weatherlink.com 1.10,2013-08-21 06:26:00,
2013-08-21 02:41:00,66.1,65.0,30.14,SSE,151,0.0,-999.0,95,-99.99,,,0.00,weatherlink.com 1.10,2013-08-21 06:41:00,
2013-08-21 02:56:00,65.9,65.0,30.14,SSE,151,0.0,-999.0,96,-99.99,,,0.00,weatherlink.com 1.10,2013-08-21 06:56:00,
2013-08-21 03:11:00,66.2,65.0,30.14,SE,136,0.0,-999.0,96,-99.99,,,0.00,weatherlink.com 1.10,2013-08-21 07:11:00,
2013-08-21 03:26:00,66.3,65.0,30.14,SE,136,0.0,-999.0,96,-99.99,,,0.00,weatherlink.com 1.10,2013-08-21 07:26:00,
2013-08-21 03:41:00,66.2,65.0,30.15,SE,137,0.0,-999.0,96,-99.99,,,0.00,weatherlink.com 1.10,2013-08-21 07:41:00,
2013-08-21 03:56:00,66.0,65.0,30.15,SE,137,1.0,-999.0,96,-99.99,,,0.00,weatherlink.com 1.10,2013-08-21 07:56:00,
2013-08-21 04:11:00,65.9,65.0,30.15,SE,138,0.0,-999.0,96,-99.99,,,0.00,weatherlink.com 1.10,2013-08-21 08:11:00,
2013-08-21 04:26:00,65.8,65.0,30.15,SE,132,0.0,-999.0,96,-99.99,,,0.00,weatherlink.com 1.10,2013-08-21 08:26:00,
2013-08-21 04:41:00,65.5,64.0,30.15,SE,139,0.0,-999.0,96,-99.99,,,0.00,weatherlink.com 1.10,2013-08-21 08:41:00,
2013-08-21 04:57:00,65.4,64.0,30.15,ESE,123,0.0,-999.0,96,-99.99,,,0.00,weatherlink.com 1.10,2013-08-21 08:57:00,
2013-08-21 05:12:00,65.3,64.0,30.15,SSE,160,0.0,-999.0,96,-99.99,,,0.00,weatherlink.com 1.10,2013-08-21 09:12:00,
2013-08-21 05:27:00,65.2,64.0,30.15,SSW,194,0.0,-999.0,96,-99.99,,,0.00,weatherlink.com 1.10,2013-08-21 09:27:00,
2013-08-21 05:42:00,65.1,64.0,30.15,SE,135,0.0,-999.0,96,-99.99,,,0.00,weatherlink.com 1.10,2013-08-21 09:42:00,
2013-08-21 05:57:00,65.0,64.0,30.16,SE,130,0.0,-999.0,96,-99.99,,,0.00,weatherlink.com 1.10,2013-08-21 09:57:00,
2013-08-21 06:12:00,64.9,64.0,30.15,SE,134,0.0,-999.0,96,-99.99,,,0.00,weatherlink.com 1.10,2013-08-21 10:12:00,
2013-08-21 06:27:00,64.6,63.0,30.15,SE,134,0.0,-999.0,95,-99.99,,,0.00,weatherlink.com 1.10,2013-08-21 10:27:00,
2013-08-21 06:42:00,64.7,64.0,30.16,SE,137,0.0,-999.0,96,-99.99,,,0.00,weatherlink.com 1.10,2013-08-21 10:42:00,
2013-08-21 06:57:00,64.8,63.0,30.16,SE,127,0.0,-999.0,95,-99.99,,,0.00,weatherlink.com 1.10,2013-08-21 10:57:00,
2013-08-21 07:12:00,65.2,64.0,30.16,SE,133,0.0,-999.0,95,-99.99,,,0.00,weatherlink.com 1.10,2013-08-21 11:12:00,
2013-08-21 07:27:00,65.6,64.0,30.16,SSE,166,0.0,-999.0,95,-99.99,,,0.00,weatherlink.com 1.10,2013-08-21 11:27:00,
2013-08-21 07:42:00,66.4,65.0,30.17,SE,140,0.0,-999.0,94,-99.99,,,0.00,weatherlink.com 1.10,2013-08-21 11:42:00,
2013-08-21 07:57:00,67.3,65.0,30.17,SE,138,1.0,-999.0,93,-99.99,,,0.00,weatherlink.com 1.10,2013-08-21 11:57:00,
2013-08-21 08:12:00,68.4,66.0,30.17,SSE,168,0.0,-999.0,92,-99.99,,,0.00,weatherlink.com 1.10,2013-08-21 12:12:00,
2013-08-21 08:27:00,69.6,67.0,30.17,SSW,202,0.0,-999.0,90,-99.99,,,0.00,weatherlink.com 1.10,2013-08-21 12:27:00,
2013-08-21 08:42:00,71.0,67.0,30.18,SSW,195,0.0,-999.0,87,-99.99,,,0.00,weatherlink.com 1.10,2013-08-21 12:42:00,
2013-08-21 08:57:00,72.2,67.0,30.18,SSW,210,4.0,-999.0,84,-99.99,,,0.00,weatherlink.com 1.10,2013-08-21 12:57:00,
2013-08-21 09:12:00,73.5,68.0,30.18,SSW,208,0.0,-999.0,83,-99.99,,,0.00,weatherlink.com 1.10,2013-08-21 13:12:00,
2013-08-21 09:27:00,74.3,68.0,30.18,South,190,0.0,-999.0,81,-99.99,,,0.00,weatherlink.com 1.10,2013-08-21 13:27:00,
2013-08-21 09:42:00,75.3,69.0,30.18,West,261,3.0,-999.0,81,-99.99,,,0.00,weatherlink.com 1.10,2013-08-21 13:42:00,
2013-08-21 09:57:00,76.1,69.0,30.18,SW,235,0.0,-999.0,78,-99.99,,,0.00,weatherlink.com 1.10,2013-08-21 13:57:00,
2013-08-21 10:12:00,77.0,69.0,30.18,SW,219,1.0,-999.0,76,-99.99,,,0.00,weatherlink.com 1.10,2013-08-21 14:12:00,
2013-08-21 10:27:00,77.8,69.0,30.17,WSW,248,0.0,-999.0,75,-99.99,,,0.00,weatherlink.com 1.10,2013-08-21 14:27:00,
2013-08-21 10:42:00,78.5,70.0,30.17,South,190,3.0,-999.0,74,-99.99,,,0.00,weatherlink.com 1.10,2013-08-21 14:42:00,
2013-08-21 10:57:00,79.4,70.0,30.17,SW,221,0.0,-999.0,72,-99.99,,,0.00,weatherlink.com 1.10,2013-08-21 14:57:00,
2013-08-21 11:12:00,80.5,69.0,30.17,South,178,0.0,-999.0,69,-99.99,,,0.00,weatherlink.com 1.10,2013-08-21 15:12:00,
2013-08-21 11:27:00,81.0,69.0,30.16,SSW,204,5.0,-999.0,67,-99.99,,,0.00,weatherlink.com 1.10,2013-08-21 15:27:00,
2013-08-21 11:42:00,81.6,70.0,30.16,WSW,251,0.0,-999.0,68,-99.99,,,0.00,weatherlink.com 1.10,2013-08-21 15:42:00,
2013-08-21 11:58:00,82.5,70.0,30.16,SSW,198,1.0,-999.0,66,-99.99,,,0.00,weatherlink.com 1.10,2013-08-21 15:58:00,
2013-08-21 12:13:00,82.8,71.0,30.16,SSW,206,0.0,-999.0,67,-99.99,,,0.00,weatherlink.com 1.10,2013-08-21 16:13:00,
2013-08-21 12:28:00,83.2,71.0,30.16,SSW,209,2.0,-999.0,66,-99.99,,,0.00,weatherlink.com 1.10,2013-08-21 16:28:00,
2013-08-21 12:43:00,83.6,70.0,30.16,WNW,286,0.0,-999.0,64,-99.99,,,0.00,weatherlink.com 1.10,2013-08-21 16:43:00,
2013-08-21 12:58:00,84.2,70.0,30.15,NW,309,3.0,-999.0,62,-99.99,,,0.00,weatherlink.com 1.10,2013-08-21 16:58:00,
2013-08-21 13:13:00,84.6,71.0,30.14,WNW,291,0.0,-999.0,63,-99.99,,,0.00,weatherlink.com 1.10,2013-08-21 17:13:00,
2013-08-21 13:28:00,84.3,71.0,30.14,WNW,299,5.0,-999.0,64,-99.99,,,0.00,weatherlink.com 1.10,2013-08-21 17:28:00,
2013-08-21 13:43:00,82.8,71.0,30.14,NW,314,0.0,-999.0,68,-99.99,,,0.00,weatherlink.com 1.10,2013-08-21 17:43:00,
2013-08-21 13:58:00,82.4,71.0,30.13,NW,314,0.0,-999.0,68,-99.99,,,0.00,weatherlink.com 1.10,2013-08-21 17:58:00,
2013-08-21 14:13:00,82.9,71.0,30.13,West,280,0.0,-999.0,68,-99.99,,,0.00,weatherlink.com 1.10,2013-08-21 18:13:00,
2013-08-21 14:28:00,82.8,70.0,30.12,SSW,194,3.0,-999.0,65,-99.99,,,0.00,weatherlink.com 1.10,2013-08-21 18:28:00,
2013-08-21 14:43:00,82.7,71.0,30.12,SSW,204,0.0,-999.0,67,-99.99,,,0.00,weatherlink.com 1.10,2013-08-21 18:43:00,
2013-08-21 14:58:00,81.8,71.0,30.11,West,271,0.0,-999.0,69,-99.99,,,0.00,weatherlink.com 1.10,2013-08-21 18:58:00,
2013-08-21 15:13:00,82.7,71.0,30.11,NW,311,0.0,-999.0,67,-99.99,,,0.00,weatherlink.com 1.10,2013-08-21 19:13:00,
2013-08-21 15:28:00,83.5,70.0,30.10,SSW,210,0.0,-999.0,64,-99.99,,,0.00,weatherlink.com 1.10,2013-08-21 19:28:00,
2013-08-21 15:43:00,83.5,70.0,30.10,SSW,209,3.0,-999.0,63,-99.99,,,0.00,weatherlink.com 1.10,2013-08-21 19:43:00,
2013-08-21 15:58:00,84.2,69.0,30.09,SW,217,3.0,-999.0,61,-99.99,,,0.00,weatherlink.com 1.10,2013-08-21 19:58:00,
2013-08-21 16:13:00,82.7,69.0,30.09,SW,219,0.0,-999.0,63,-99.99,,,0.00,weatherlink.com 1.10,2013-08-21 20:13:00,
2013-08-21 16:28:00,83.7,68.0,30.09,WSW,238,3.0,-999.0,60,-99.99,,,0.00,weatherlink.com 1.10,2013-08-21 20:28:00,
2013-08-21 16:43:00,83.5,69.0,30.07,ENE,78,0.0,-999.0,61,-99.99,,,0.00,weatherlink.com 1.10,2013-08-21 20:43:00,
2013-08-21 16:58:00,83.6,69.0,30.07,SSW,209,2.0,-999.0,61,-99.99,,,0.00,weatherlink.com 1.10,2013-08-21 20:58:00,
2013-08-21 17:13:00,83.8,67.0,30.07,SW,231,2.0,-999.0,58,-99.99,,,0.00,weatherlink.com 1.10,2013-08-21 21:13:00,
2013-08-21 17:28:00,83.9,67.0,30.06,SSE,153,0.0,-999.0,57,-99.99,,,0.00,weatherlink.com 1.10,2013-08-21 21:28:00,
2013-08-21 17:43:00,83.7,67.0,30.06,SSW,211,1.0,-999.0,57,-99.99,,,0.00,weatherlink.com 1.10,2013-08-21 21:43:00,
2013-08-21 17:58:00,83.5,67.0,30.05,SE,126,0.0,-999.0,58,-99.99,,,0.00,weatherlink.com 1.10,2013-08-21 21:58:00,
2013-08-21 18:13:00,83.3,66.0,30.06,SSW,211,4.0,-999.0,57,-99.99,,,0.00,weatherlink.com 1.10,2013-08-21 22:13:00,
2013-08-21 18:28:00,82.4,66.0,30.05,SSE,167,0.0,-999.0,58,-99.99,,,0.00,weatherlink.com 1.10,2013-08-21 22:28:00,
2013-08-21 18:43:00,81.8,66.0,30.05,SSW,198,0.0,-999.0,59,-99.99,,,0.00,weatherlink.com 1.10,2013-08-21 22:43:00,
2013-08-21 18:58:00,81.2,66.0,30.04,SSW,206,0.0,-999.0,60,-99.99,,,0.00,weatherlink.com 1.10,2013-08-21 22:58:00,
2013-08-21 19:13:00,80.5,66.0,30.04,WSW,237,0.0,-999.0,61,-99.99,,,0.00,weatherlink.com 1.10,2013-08-21 23:13:00,
2013-08-21 19:28:00,79.8,66.0,30.04,South,182,0.0,-999.0,63,-99.99,,,0.00,weatherlink.com 1.10,2013-08-21 23:28:00,
2013-08-21 19:43:00,79.1,66.0,30.04,SSW,212,0.0,-999.0,65,-99.99,,,0.00,weatherlink.com 1.10,2013-08-21 23:43:00,
2013-08-21 19:58:00,77.6,66.0,30.03,South,171,0.0,-999.0,68,-99.99,,,0.00,weatherlink.com 1.10,2013-08-21 23:58:00,
2013-08-21 20:13:00,76.4,66.0,30.03,South,171,0.0,-999.0,70,-99.99,,,0.00,weatherlink.com 1.10,2013-08-22 00:13:00,
2013-08-21 20:28:00,75.2,66.0,30.03,South,171,0.0,-999.0,72,-99.99,,,0.00,weatherlink.com 1.10,2013-08-22 00:28:00,
2013-08-21 20:43:00,74.2,66.0,30.04,SSW,203,0.0,-999.0,75,-99.99,,,0.00,weatherlink.com 1.10,2013-08-22 00:43:00,
2013-08-21 20:58:00,72.9,65.0,30.04,SSE,153,0.0,-999.0,77,-99.99,,,0.00,weatherlink.com 1.10,2013-08-22 00:58:00,
2013-08-21 21:13:00,72.0,65.0,30.04,SE,130,0.0,-999.0,79,-99.99,,,0.00,weatherlink.com 1.10,2013-08-22 01:13:00,
2013-08-21 21:28:00,71.3,65.0,30.04,SE,130,0.0,-999.0,81,-99.99,,,0.00,weatherlink.com 1.10,2013-08-22 01:28:00,
2013-08-21 21:43:00,70.8,65.0,30.04,SSW,201,0.0,-999.0,82,-99.99,,,0.00,weatherlink.com 1.10,2013-08-22 01:43:00,
2013-08-21 21:59:00,70.4,65.0,30.04,SSW,201,0.0,-999.0,83,-99.99,,,0.00,weatherlink.com 1.10,2013-08-22 01:59:00,
2013-08-21 22:14:00,70.0,65.0,30.04,SSW,201,0.0,-999.0,84,-99.99,,,0.00,weatherlink.com 1.10,2013-08-22 02:14:00,
2013-08-21 22:29:00,70.0,65.0,30.05,SSE,164,0.0,-999.0,85,-99.99,,,0.00,weatherlink.com 1.10,2013-08-22 02:29:00,
2013-08-21 22:44:00,69.9,65.0,30.05,SSW,210,0.0,-999.0,85,-99.99,,,0.00,weatherlink.com 1.10,2013-08-22 02:44:00,
2013-08-21 22:59:00,69.3,65.0,30.05,South,175,0.0,-999.0,87,-99.99,,,0.00,weatherlink.com 1.10,2013-08-22 02:59:00,
2013-08-21 23:14:00,68.9,65.0,30.05,South,175,0.0,-999.0,88,-99.99,,,0.00,weatherlink.com 1.10,2013-08-22 03:14:00,
2013-08-21 23:29:00,68.8,66.0,30.05,South,175,0.0,-999.0,90,-99.99,,,0.00,weatherlink.com 1.10,2013-08-22 03:29:00,
2013-08-21 23:44:00,68.9,66.0,30.04,SE,130,0.0,-999.0,91,-99.99,,,0.00,weatherlink.com 1.10,2013-08-22 03:44:00,
2013-08-21 23:59:00,68.7,66.0,30.03,SE,136,0.0,-999.0,92,-99.99,,,0.00,weatherlink.com 1.10,2013-08-22 03:59:00,